Time;durP1;ratioP1;P1;durP2;ratioP2;P2;SDS_P1;SDS_P2;PMS_P1;PMS_P2;Temp;Humidity;BMP_temperature;BMP_pressure;BME280_temperature;BME280_humidity;BME280_pressure;Samples;Min_cycle;Max_cycle;Signal;HPM_P1;HPM_P2
2023/02/08 00:01:11;;;;;;;14.18;5.32;;;;;;;7.10;39.22;103613.53;5052228;28;20102;-66
2023/02/08 00:03:36;;;;;;;16.90;5.35;;;;;;;7.11;39.21;103609.94;5051142;28;20445;-65
2023/02/08 00:06:02;;;;;;;11.57;5.22;;;;;;;7.12;39.94;103602.84;5051364;28;20063;-65
2023/02/08 00:08:28;;;;;;;11.88;5.30;;;;;;;7.12;40.45;103594.84;5052354;28;20033;-67
2023/02/08 00:10:53;;;;;;;18.30;6.25;;;;;;;7.11;40.57;103593.97;5051938;28;20032;-65
2023/02/08 00:13:19;;;;;;;11.23;5.18;;;;;;;7.11;39.15;103606.41;5052920;28;20056;-65
2023/02/08 00:15:45;;;;;;;9.75;5.18;;;;;;;7.05;40.37;103591.44;5052297;28;20040;-66
2023/02/08 00:18:11;;;;;;;13.63;5.68;;;;;;;7.08;39.47;103606.47;5052563;28;20037;-64
2023/02/08 00:20:38;;;;;;;9.85;4.75;;;;;;;7.05;40.64;103604.78;5051222;28;20040;-66
2023/02/08 00:23:03;;;;;;;13.23;5.68;;;;;;;7.03;40.75;103599.47;5052407;28;20115;-65
2023/02/08 00:25:28;;;;;;;10.95;5.00;;;;;;;7.02;40.92;103599.50;5052716;28;20075;-66
2023/02/08 00:27:54;;;;;;;11.20;6.03;;;;;;;7.00;39.77;103602.25;5052178;28;20040;-65
2023/02/08 00:30:19;;;;;;;10.13;5.63;;;;;;;6.98;40.27;103589.84;5051215;28;20043;-65
2023/02/08 00:32:45;;;;;;;14.95;5.15;;;;;;;6.96;40.77;103595.22;5052549;28;20033;-66
2023/02/08 00:35:10;;;;;;;14.48;4.80;;;;;;;6.94;39.96;103589.06;5053556;28;20447;-66
2023/02/08 00:37:35;;;;;;;12.50;5.43;;;;;;;6.92;40.43;103592.69;5056385;28;20485;-66
2023/02/08 00:40:01;;;;;;;10.45;5.15;;;;;;;6.89;40.59;103598.09;5055852;28;20025;-66
2023/02/08 00:42:27;;;;;;;10.60;4.95;;;;;;;6.89;41.11;103595.41;5055769;28;20413;-66
2023/02/08 00:44:52;;;;;;;13.95;5.32;;;;;;;6.87;40.68;103589.22;5055742;28;20033;-65
2023/02/08 00:47:18;;;;;;;12.65;5.03;;;;;;;6.85;40.66;103591.06;5055860;28;20057;-64
2023/02/08 00:49:43;;;;;;;9.73;5.43;;;;;;;6.83;40.94;103585.78;5054638;28;20071;-65
2023/02/08 00:52:09;;;;;;;8.68;4.57;;;;;;;6.82;40.75;103580.47;5055683;28;20029;-66
2023/02/08 00:54:34;;;;;;;9.18;5.47;;;;;;;6.80;40.08;103583.19;5054375;28;20416;-66
2023/02/08 00:56:59;;;;;;;12.15;5.10;;;;;;;6.79;40.12;103597.41;5055722;28;20165;-66
2023/02/08 00:59:26;;;;;;;11.43;5.63;;;;;;;6.77;39.44;103593.03;5054103;28;20111;-65
2023/02/08 01:01:51;;;;;;;12.25;5.07;;;;;;;6.74;40.02;103587.78;5054597;28;20496;-66
2023/02/08 01:04:17;;;;;;;14.82;4.90;;;;;;;6.71;40.09;103582.53;5055410;28;20039;-65
2023/02/08 01:06:42;;;;;;;9.27;5.50;;;;;;;6.69;39.50;103593.22;5055274;28;20044;-66
2023/02/08 01:09:07;;;;;;;11.10;5.30;;;;;;;6.66;39.96;103589.75;5055094;28;20124;-65
2023/02/08 01:11:33;;;;;;;15.18;5.10;;;;;;;6.65;39.42;103593.31;5055380;28;20509;-66
2023/02/08 01:13:59;;;;;;;11.35;4.95;;;;;;;6.62;39.43;103593.38;5055353;28;20175;-65
2023/02/08 01:16:26;;;;;;;12.27;5.15;;;;;;;6.60;40.48;103590.78;5055513;28;20051;-64
2023/02/08 01:18:53;;;;;;;9.05;5.35;;;;;;;6.58;40.88;103592.59;5055046;28;20512;-66
2023/02/08 01:21:24;;;;;;;10.07;4.78;;;;;;;6.59;39.75;103590.81;5054887;28;20409;-65
2023/02/08 01:23:50;;;;;;;12.27;5.55;;;;;;;6.58;41.02;103595.28;5053256;28;20132;-66
2023/02/08 01:26:16;;;;;;;17.70;5.57;;;;;;;6.60;40.80;103597.88;5053678;28;20060;-66
2023/02/08 01:28:42;;;;;;;19.52;5.97;;;;;;;6.60;40.93;103593.44;5055285;28;20029;-66
2023/02/08 01:31:19;;;;;;;17.58;6.45;;;;;;;6.61;39.58;103594.31;5054715;28;20029;-66
2023/02/08 01:33:45;;;;;;;18.20;6.07;;;;;;;6.59;39.34;103588.16;5053567;28;20524;-65
2023/02/08 01:36:11;;;;;;;16.33;6.43;;;;;;;6.60;39.72;103595.22;5053556;28;20041;-66
2023/02/08 01:38:36;;;;;;;12.57;5.85;;;;;;;6.57;40.12;103589.97;5053414;28;20158;-64
2023/02/08 01:41:03;;;;;;;17.00;5.80;;;;;;;6.54;40.14;103580.25;5054511;28;20033;-65
2023/02/08 01:43:34;;;;;;;19.60;5.63;;;;;;;6.51;40.15;103592.75;5055023;28;20029;-63
2023/02/08 01:45:59;;;;;;;11.05;5.57;;;;;;;6.47;39.42;103583.13;5054504;28;20037;-66
2023/02/08 01:48:32;;;;;;;13.23;5.95;;;;;;;6.43;40.29;103591.16;5053988;28;20036;-66
2023/02/08 01:51:03;;;;;;;12.45;5.30;;;;;;;6.40;39.73;103588.56;5053429;28;20045;-66
2023/02/08 01:53:30;;;;;;;16.65;6.70;;;;;;;6.37;40.03;103593.97;5043099;28;20405;-66
2023/02/08 01:55:59;;;;;;;11.93;4.95;;;;;;;6.36;40.37;103592.22;5033696;28;20036;-64
2023/02/08 01:58:27;;;;;;;12.32;5.60;;;;;;;6.36;39.55;103584.25;5016735;28;20497;-64
2023/02/08 02:00:53;;;;;;;11.95;5.38;;;;;;;6.35;39.38;103579.81;5033172;28;20496;-66
2023/02/08 02:03:20;;;;;;;13.82;5.78;;;;;;;6.34;40.44;103575.41;5034447;28;20044;-65
2023/02/08 02:05:49;;;;;;;13.93;5.90;;;;;;;6.32;40.98;103579.00;5033451;28;20029;-65
2023/02/08 02:08:14;;;;;;;13.73;5.45;;;;;;;6.31;40.31;103579.91;5034568;28;20032;-64
2023/02/08 02:10:41;;;;;;;16.67;6.97;;;;;;;6.27;40.81;103581.78;5034660;28;20030;-65
2023/02/08 02:13:12;;;;;;;10.93;5.88;;;;;;;6.26;40.81;103581.78;5034609;28;20040;-66
2023/02/08 02:15:38;;;;;;;14.98;5.63;;;;;;;6.25;39.84;103582.72;5034096;28;20033;-67
2023/02/08 02:18:06;;;;;;;10.55;4.88;;;;;;;6.24;40.20;103584.50;5033842;28;20524;-65
2023/02/08 02:20:56;;;;;;;11.00;6.18;;;;;;;6.22;41.10;103589.00;5032875;28;20034;-65
2023/02/08 02:23:33;;;;;;;13.13;5.38;;;;;;;6.21;39.46;103602.31;5033864;28;20044;-66
2023/02/08 02:26:40;;;;;;;19.88;7.07;;;;;;;6.20;41.21;103598.78;5033894;28;20060;-66
2023/02/08 02:29:11;;;;;;;13.85;6.78;;;;;;;6.19;40.94;103594.38;4985730;28;20049;-66
2023/02/08 02:31:49;;;;;;;11.85;5.80;;;;;;;6.19;39.93;103585.50;5034275;28;20429;-66
2023/02/08 02:34:15;;;;;;;11.57;5.53;;;;;;;6.17;40.64;103590.84;5032478;28;20497;-65
2023/02/08 02:36:47;;;;;;;14.50;5.13;;;;;;;6.15;40.84;103579.38;5015815;28;20048;-64
2023/02/08 02:39:37;;;;;;;16.90;5.20;;;;;;;6.12;40.23;103582.09;5033279;28;20402;-65
2023/02/08 02:45:39;;;;;;;15.60;5.40;;;;;;;6.06;41.25;103584.88;5033609;28;20103;-65
2023/02/08 02:48:11;;;;;;;13.52;5.78;;;;;;;6.03;40.22;103570.81;5033416;28;20045;-66
2023/02/08 02:50:47;;;;;;;14.82;4.97;;;;;;;6.00;39.63;103577.06;5033266;28;20041;-65
2023/02/08 02:53:40;;;;;;;11.13;5.72;;;;;;;5.99;40.97;103569.97;5033633;28;20108;-65
2023/02/08 02:56:12;;;;;;;12.98;5.97;;;;;;;5.95;40.17;103568.28;5033640;28;20021;-65
2023/02/08 02:58:39;;;;;;;12.57;5.43;;;;;;;5.95;39.98;103578.91;5032313;28;20025;-66
2023/02/08 03:01:04;;;;;;;11.48;5.05;;;;;;;5.93;39.46;103564.78;5032101;28;20044;-65
2023/02/08 03:03:33;;;;;;;14.18;5.32;;;;;;;5.92;40.32;103565.69;5033111;28;20029;-65
2023/02/08 03:06:04;;;;;;;7.93;4.95;;;;;;;5.92;39.55;103578.97;5033274;28;20033;-65
2023/02/08 03:08:48;;;;;;;16.10;5.57;;;;;;;5.90;40.03;103570.16;5039567;28;20168;-66
2023/02/08 03:11:23;;;;;;;12.75;5.65;;;;;;;5.87;41.33;103570.22;5053015;28;20061;-64
2023/02/08 03:14:10;;;;;;;11.18;5.53;;;;;;;5.86;39.55;103579.13;5052143;28;20029;-65
2023/02/08 03:17:03;;;;;;;11.25;5.35;;;;;;;5.82;40.96;103582.72;5053200;28;20533;-65
2023/02/08 03:19:38;;;;;;;9.75;4.68;;;;;;;5.81;41.21;103580.94;5048544;28;20056;-66
2023/02/08 03:22:12;;;;;;;10.05;5.15;;;;;;;5.81;39.61;103587.16;5053001;28;20050;-65
2023/02/08 03:25:07;;;;;;;10.57;4.47;;;;;;;5.83;40.25;103581.81;5051359;28;20083;-65
2023/02/08 03:28:13;;;;;;;10.73;4.63;;;;;;;5.83;40.32;103584.47;5051730;28;20037;-65
2023/02/08 03:30:47;;;;;;;11.32;4.85;;;;;;;5.80;39.92;103584.53;5051684;28;20045;-65
2023/02/08 03:33:35;;;;;;;10.95;4.50;;;;;;;5.77;41.40;103568.63;5051841;28;20041;-65
2023/02/08 03:36:05;;;;;;;8.07;4.72;;;;;;;5.76;39.69;103577.50;5051846;28;20036;-65
2023/02/08 03:38:39;;;;;;;7.72;4.85;;;;;;;5.76;40.14;103572.19;5051508;28;20276;-65
2023/02/08 03:41:09;;;;;;;16.10;5.45;;;;;;;5.75;39.98;103573.13;5051888;28;20131;-65
2023/02/08 03:43:34;;;;;;;10.90;5.32;;;;;;;5.74;40.79;103574.00;5052234;28;20029;-66
2023/02/08 03:46:38;;;;;;;10.68;5.55;;;;;;;5.74;39.81;103574.00;5052776;28;20059;-66
2023/02/08 03:49:06;;;;;;;13.80;5.30;;;;;;;5.70;41.11;103577.63;5052356;28;20044;-65
2023/02/08 03:51:33;;;;;;;10.25;5.85;;;;;;;5.69;40.79;103575.91;5052710;28;20033;-65
2023/02/08 03:54:01;;;;;;;8.35;4.43;;;;;;;5.68;41.08;103576.78;5050206;28;20136;-65
2023/02/08 03:56:36;;;;;;;10.55;5.18;;;;;;;5.65;41.22;103579.50;5034539;28;20045;-65
2023/02/08 03:59:06;;;;;;;12.95;5.72;;;;;;;5.64;41.51;103577.78;5052661;28;20035;-65
2023/02/08 04:01:37;;;;;;;12.10;4.65;;;;;;;5.62;41.34;103587.53;5035673;28;20108;-65
2023/02/08 04:04:02;;;;;;;13.13;5.28;;;;;;;5.60;40.15;103581.38;5031494;28;20061;-66
2023/02/08 04:06:28;;;;;;;10.55;5.07;;;;;;;5.59;41.58;103584.94;5035961;28;20496;-65
2023/02/08 04:08:54;;;;;;;7.80;4.47;;;;;;;5.61;40.68;103588.47;5051170;28;20051;-66
2023/02/08 04:11:19;;;;;;;14.07;5.10;;;;;;;5.61;40.19;103580.50;5054168;28;20033;-65
2023/02/08 04:13:44;;;;;;;12.23;5.55;;;;;;;5.62;40.08;103579.56;5056909;28;20108;-65
2023/02/08 04:16:13;;;;;;;8.02;5.07;;;;;;;5.61;40.50;103573.38;5056480;28;20433;-66
2023/02/08 04:18:38;;;;;;;8.82;4.85;;;;;;;5.60;40.23;103576.06;5056006;28;20045;-65
2023/02/08 04:21:04;;;;;;;10.25;4.97;;;;;;;5.59;41.34;103576.97;5056193;28;20029;-66
2023/02/08 04:23:30;;;;;;;9.07;4.30;;;;;;;5.57;41.37;103581.44;5055977;28;20055;-65
2023/02/08 04:25:55;;;;;;;11.65;5.18;;;;;;;5.55;39.94;103578.84;5056730;28;20068;-66
2023/02/08 04:28:21;;;;;;;14.73;5.45;;;;;;;5.54;41.65;103577.06;5054923;28;20052;-65
2023/02/08 04:30:46;;;;;;;13.65;5.53;;;;;;;5.53;39.88;103585.06;5055947;28;20073;-65
2023/02/08 04:33:13;;;;;;;11.35;5.30;;;;;;;5.53;42.08;103579.72;5056038;28;20124;-66
2023/02/08 04:35:42;;;;;;;9.80;5.20;;;;;;;5.52;41.94;103581.53;5056162;28;20423;-64
2023/02/08 04:38:07;;;;;;;11.35;4.43;;;;;;;5.55;41.64;103588.56;5055979;28;20031;-66
2023/02/08 04:40:33;;;;;;;11.82;5.30;;;;;;;5.55;41.10;103594.78;5056039;28;20021;-64
2023/02/08 04:42:58;;;;;;;9.57;4.38;;;;;;;5.50;40.23;103588.66;5054663;28;20044;-66
2023/02/08 04:45:25;;;;;;;10.50;4.80;;;;;;;5.52;41.11;103591.28;5056059;28;20405;-65
2023/02/08 04:47:51;;;;;;;16.50;4.68;;;;;;;5.50;40.32;103579.81;5055769;28;20564;-66
2023/02/08 04:50:16;;;;;;;8.18;4.60;;;;;;;5.48;40.32;103576.28;5058877;28;20041;-65
2023/02/08 04:52:42;;;;;;;9.82;4.35;;;;;;;5.46;41.07;103580.78;5057370;28;20108;-65
2023/02/08 04:55:07;;;;;;;7.85;4.63;;;;;;;5.47;40.45;103574.56;5055625;28;20413;-65
2023/02/08 04:57:33;;;;;;;12.75;5.05;;;;;;;5.46;40.79;103573.69;5055618;28;20114;-66
2023/02/08 04:59:58;;;;;;;9.50;4.55;;;;;;;5.45;40.24;103573.69;5055530;28;20170;-65
2023/02/08 05:02:23;;;;;;;10.70;6.63;;;;;;;5.42;40.68;103581.72;5055608;28;20401;-65
2023/02/08 05:04:49;;;;;;;9.10;4.40;;;;;;;5.39;41.78;103571.19;5055943;28;20477;-65
2023/02/08 05:07:14;;;;;;;6.72;4.28;;;;;;;5.35;41.50;103573.00;5055183;28;20091;-65
2023/02/08 05:09:40;;;;;;;9.88;5.40;;;;;;;5.34;39.90;103573.91;5055231;28;20404;-65
2023/02/08 05:12:05;;;;;;;10.90;4.38;;;;;;;5.33;41.34;103581.91;5055351;28;20222;-65
2023/02/08 05:14:30;;;;;;;15.07;5.32;;;;;;;5.32;42.00;103570.41;5055297;28;20102;-65
2023/02/08 05:16:56;;;;;;;15.57;4.28;;;;;;;5.29;40.67;103576.66;5055963;28;20473;-64
2023/02/08 05:19:21;;;;;;;7.07;4.22;;;;;;;5.28;40.00;103574.00;5055021;28;20037;-66
2023/02/08 05:21:46;;;;;;;11.60;4.70;;;;;;;5.28;40.11;103574.00;5036110;28;20037;-65
2023/02/08 05:24:12;;;;;;;11.52;4.68;;;;;;;5.27;41.94;103573.16;5054706;28;20076;-65
2023/02/08 05:26:39;;;;;;;11.35;4.38;;;;;;;5.26;40.92;103571.38;5054855;28;20043;-65
2023/02/08 05:29:04;;;;;;;13.38;4.90;;;;;;;5.27;40.83;103573.16;5054969;28;20128;-65
2023/02/08 05:31:30;;;;;;;11.77;4.18;;;;;;;5.29;41.63;103566.03;5054257;28;20551;-65
2023/02/08 05:33:55;;;;;;;14.07;4.78;;;;;;;5.29;40.53;103571.34;5053558;28;20044;-65
2023/02/08 05:36:22;;;;;;;9.00;4.05;;;;;;;5.33;41.87;103576.59;5053555;28;20046;-65
2023/02/08 05:38:47;;;;;;;9.10;4.10;;;;;;;5.34;40.45;103573.91;5054408;28;20083;-64
2023/02/08 05:41:13;;;;;;;9.00;4.20;;;;;;;5.36;40.75;103573.88;5054623;28;20029;-66
2023/02/08 05:43:38;;;;;;;11.88;4.57;;;;;;;5.35;40.15;103575.66;5054842;28;20540;-65
2023/02/08 05:46:04;;;;;;;13.52;5.15;;;;;;;5.36;42.05;103579.19;5054473;28;20041;-65
2023/02/08 05:48:30;;;;;;;10.32;4.65;;;;;;;5.35;41.55;103573.00;5054532;28;20056;-65
2023/02/08 05:50:56;;;;;;;12.70;5.47;;;;;;;5.36;40.58;103582.72;5054628;28;20120;-66
2023/02/08 05:53:21;;;;;;;10.35;4.57;;;;;;;5.38;41.62;103569.41;5053396;28;20129;-65
2023/02/08 05:55:50;;;;;;;16.55;4.20;;;;;;;5.38;40.33;103572.94;5055177;28;20036;-63
2023/02/08 05:58:16;;;;;;;11.02;4.05;;;;;;;5.36;40.97;103580.06;5054361;28;20124;-65
2023/02/08 06:00:42;;;;;;;12.32;4.93;;;;;;;5.35;42.13;103580.09;5053117;28;20087;-65
2023/02/08 06:03:07;;;;;;;10.63;4.30;;;;;;;5.33;41.07;103576.59;5053523;28;20041;-65
2023/02/08 06:05:33;;;;;;;11.40;5.15;;;;;;;5.30;40.84;103567.75;5055615;28;20078;-66
2023/02/08 06:07:58;;;;;;;15.50;6.25;;;;;;;5.29;40.71;103571.34;5055914;28;20474;-66
2023/02/08 06:10:23;;;;;;;14.27;6.03;;;;;;;5.26;40.71;103570.50;5050254;28;20025;-65
2023/02/08 06:12:49;;;;;;;12.10;5.32;;;;;;;5.24;41.52;103578.53;5037072;28;20041;-65
2023/02/08 06:15:14;;;;;;;9.05;5.25;;;;;;;5.21;41.90;103578.56;5034176;28;20037;-65
2023/02/08 06:17:40;;;;;;;16.85;5.47;;;;;;;5.21;40.72;103583.00;5032750;28;20046;-64
2023/02/08 06:20:05;;;;;;;9.65;4.28;;;;;;;5.21;41.22;103573.25;5032719;28;20489;-65
2023/02/08 06:22:33;;;;;;;9.65;4.50;;;;;;;5.22;41.54;103588.28;5034136;28;20040;-65
2023/02/08 06:24:59;;;;;;;8.20;4.00;;;;;;;5.24;41.46;103589.16;5033623;28;20445;-64
2023/02/08 06:27:24;;;;;;;6.60;4.10;;;;;;;5.28;41.47;103589.94;5043921;28;20037;-68
2023/02/08 06:29:49;;;;;;;8.07;4.85;;;;;;;5.30;41.95;103594.31;5049756;28;20055;-64
2023/02/08 06:32:15;;;;;;;15.88;6.78;;;;;;;5.30;42.12;103591.66;5053028;28;20029;-64
2023/02/08 06:34:40;;;;;;;17.35;7.95;;;;;;;5.28;42.22;103590.81;5039323;28;20401;-66
2023/02/08 06:37:06;;;;;;;16.45;6.32;;;;;;;5.26;41.42;103582.03;5053595;28;20041;-65
2023/02/08 06:39:31;;;;;;;12.35;5.70;;;;;;;5.26;40.82;103589.09;5053405;28;20112;-67
2023/02/08 06:41:56;;;;;;;9.40;4.68;;;;;;;5.25;40.60;103585.56;5053423;28;20045;-65
2023/02/08 06:44:22;;;;;;;15.50;6.13;;;;;;;5.25;41.84;103587.34;5053659;28;20037;-65
2023/02/08 06:46:48;;;;;;;12.50;6.43;;;;;;;5.25;41.82;103585.56;5053662;28;20037;-66
2023/02/08 06:49:13;;;;;;;13.35;5.13;;;;;;;5.23;42.19;103592.69;5052051;28;20098;-64
2023/02/08 06:51:39;;;;;;;7.88;4.65;;;;;;;5.22;41.76;103585.63;5053382;28;20086;-66
2023/02/08 06:54:05;;;;;;;11.60;5.25;;;;;;;5.20;40.72;103582.13;5052133;28;20044;-65
2023/02/08 06:56:30;;;;;;;9.98;5.53;;;;;;;5.19;40.88;103582.16;5053442;28;20409;-64
2023/02/08 06:58:56;;;;;;;9.02;5.05;;;;;;;5.17;40.28;103576.84;5053632;28;20470;-65
2023/02/08 07:01:21;;;;;;;10.35;4.75;;;;;;;5.16;41.35;103577.78;5053209;28;20036;-65
2023/02/08 07:03:47;;;;;;;12.63;4.63;;;;;;;5.15;41.77;103580.44;5053056;28;20033;-64
2023/02/08 07:06:13;;;;;;;6.43;4.03;;;;;;;5.15;42.11;103578.69;5051893;28;20051;-65
2023/02/08 07:08:39;;;;;;;7.93;3.83;;;;;;;5.14;40.67;103576.03;5053229;28;20112;-65
2023/02/08 07:11:13;;;;;;;12.68;5.63;;;;;;;5.14;41.56;103573.38;5053012;28;20108;-63
2023/02/08 07:13:38;;;;;;;8.95;4.50;;;;;;;5.14;41.43;103565.41;5069082;28;20086;-64
2023/02/08 07:16:05;;;;;;;13.30;5.32;;;;;;;5.15;41.95;103568.06;5053215;28;20033;-65
2023/02/08 07:18:30;;;;;;;8.02;4.43;;;;;;;5.15;40.98;103572.47;5051579;28;20041;-65
2023/02/08 07:20:56;;;;;;;11.30;5.88;;;;;;;5.17;40.23;103566.22;5052931;28;20443;-65
2023/02/08 07:23:21;;;;;;;7.75;4.85;;;;;;;5.18;40.12;103569.78;5052977;28;20067;-65
2023/02/08 07:25:57;;;;;;;11.52;5.40;;;;;;;5.19;42.27;103575.03;5053016;28;20061;-65
2023/02/08 07:28:23;;;;;;;17.27;4.63;;;;;;;5.20;41.65;103576.81;5051633;28;20052;-64
2023/02/08 07:30:48;;;;;;;7.88;4.90;;;;;;;5.24;42.08;103573.22;5052748;28;20033;-65
2023/02/08 07:33:14;;;;;;;8.82;4.80;;;;;;;5.32;40.19;103564.19;5068668;28;20444;-66
2023/02/08 07:35:39;;;;;;;21.92;4.68;;;;;;;5.40;40.32;103563.16;5052890;28;20504;-66
2023/02/08 07:38:04;;;;;;;10.75;5.43;;;;;;;5.49;40.40;103562.13;5052921;28;20039;-65
2023/02/08 07:40:30;;;;;;;8.50;4.85;;;;;;;5.59;41.63;103558.34;5053033;28;20037;-65
2023/02/08 07:42:56;;;;;;;11.18;4.57;;;;;;;5.67;41.02;103557.31;5052873;28;20489;-64
2023/02/08 07:45:21;;;;;;;8.05;4.13;;;;;;;5.79;40.72;103565.03;5054327;28;20033;-63
2023/02/08 07:47:47;;;;;;;14.13;4.95;;;;;;;5.89;41.24;103557.75;5056998;28;20037;-64
2023/02/08 07:50:15;;;;;;;12.65;4.82;;;;;;;6.00;39.97;103562.88;5058743;28;20037;-65
2023/02/08 07:52:42;;;;;;;11.85;4.57;;;;;;;6.11;40.41;103553.75;5055671;28;20032;-65
2023/02/08 07:55:08;;;;;;;14.02;6.22;;;;;;;6.23;40.48;103560.56;5056736;28;20041;-65
2023/02/08 07:57:34;;;;;;;11.55;5.05;;;;;;;6.35;40.83;103558.53;5055403;28;20485;-65
2023/02/08 07:59:59;;;;;;;11.77;5.38;;;;;;;6.48;41.69;103560.91;5056644;28;20037;-66
2023/02/08 08:02:25;;;;;;;11.95;5.53;;;;;;;6.59;40.51;103545.56;5056559;28;20385;-65
2023/02/08 08:04:52;;;;;;;10.52;5.05;;;;;;;6.70;40.60;103554.16;5057055;28;20051;-65
2023/02/08 08:07:18;;;;;;;10.48;5.63;;;;;;;6.83;41.95;103555.59;5056509;28;20060;-65
2023/02/08 08:09:43;;;;;;;9.32;5.20;;;;;;;6.92;40.36;103544.72;5056236;28;20126;-65
2023/02/08 08:12:09;;;;;;;11.10;5.35;;;;;;;7.05;40.97;103551.47;5056381;28;20048;-65
2023/02/08 08:14:34;;;;;;;10.70;4.50;;;;;;;7.17;40.13;103556.50;5056361;28;20055;-66
2023/02/08 08:16:59;;;;;;;10.23;4.70;;;;;;;7.26;40.08;103552.72;5056503;28;20524;-65
2023/02/08 08:19:25;;;;;;;11.98;5.72;;;;;;;7.34;39.96;103548.91;5055169;28;20033;-66
2023/02/08 08:21:50;;;;;;;11.85;5.05;;;;;;;7.43;41.18;103548.66;5055936;28;20124;-64
2023/02/08 08:24:16;;;;;;;12.43;5.38;;;;;;;7.53;40.11;103543.97;5056599;28;20123;-66
2023/02/08 08:26:41;;;;;;;21.63;5.28;;;;;;;7.61;40.36;103542.81;5056075;28;20046;-66
2023/02/08 08:29:07;;;;;;;9.43;4.75;;;;;;;7.70;40.20;103543.47;5056048;28;20045;-65
2023/02/08 08:31:32;;;;;;;13.65;5.57;;;;;;;7.78;40.35;103549.47;5055962;28;20086;-66
2023/02/08 08:33:57;;;;;;;18.08;5.80;;;;;;;7.85;41.26;103551.91;5056086;28;20508;-65
2023/02/08 08:36:23;;;;;;;12.05;4.75;;;;;;;7.96;40.91;103548.91;5056235;28;20033;-64
2023/02/08 08:38:48;;;;;;;11.20;5.20;;;;;;;8.06;40.29;103539.72;5055829;28;20044;-65
2023/02/08 08:41:18;;;;;;;13.43;5.20;;;;;;;8.19;40.41;103543.75;5055864;28;20041;-65
2023/02/08 08:43:43;;;;;;;22.50;5.20;;;;;;;8.35;40.48;103536.19;5056087;28;20044;-65
2023/02/08 08:46:09;;;;;;;11.70;4.82;;;;;;;8.51;40.67;103533.00;5055868;28;20029;-65
2023/02/08 08:48:37;;;;;;;12.23;4.97;;;;;;;8.68;40.31;103525.28;5055604;28;20021;-64
2023/02/08 08:51:02;;;;;;;9.70;4.15;;;;;;;8.85;40.30;103523.84;5056272;28;20091;-64
2023/02/08 08:53:28;;;;;;;10.38;4.85;;;;;;;9.01;40.40;103523.28;5055670;28;20045;-65
2023/02/08 08:55:53;;;;;;;12.45;5.20;;;;;;;9.17;39.41;103524.50;5055324;28;20033;-64
2023/02/08 08:58:18;;;;;;;15.48;5.03;;;;;;;9.35;39.64;103529.16;5055755;28;20048;-65
2023/02/08 09:00:44;;;;;;;17.30;5.60;;;;;;;9.54;39.87;103524.03;5054104;28;20025;-67
2023/02/08 09:03:09;;;;;;;11.93;4.90;;;;;;;9.75;39.66;103525.03;5055946;28;20032;-65
2023/02/08 09:05:34;;;;;;;13.55;5.85;;;;;;;10.01;39.20;103532.06;5055326;28;20481;-66
2023/02/08 09:08:02;;;;;;;12.23;5.28;;;;;;;10.26;39.39;103524.88;5055160;28;20040;-65
2023/02/08 09:10:28;;;;;;;15.75;5.38;;;;;;;10.53;38.89;103516.59;5055089;28;20048;-66
2023/02/08 09:12:53;;;;;;;13.60;4.95;;;;;;;10.79;38.49;103514.63;5055088;28;20033;-64
2023/02/08 09:15:19;;;;;;;14.20;5.72;;;;;;;11.09;38.71;103513.31;5054579;28;20036;-67
2023/02/08 09:17:44;;;;;;;9.85;4.88;;;;;;;11.38;38.75;103515.59;5070644;28;20049;-67
2023/02/08 09:20:10;;;;;;;7.13;4.63;;;;;;;11.61;37.88;103507.34;5055211;28;20041;-65
2023/02/08 09:22:35;;;;;;;14.98;5.15;;;;;;;11.89;38.10;103508.81;5053824;28;20416;-66
2023/02/08 09:25:01;;;;;;;8.55;4.78;;;;;;;12.15;38.35;103498.56;5054966;28;20118;-68
2023/02/08 09:27:27;;;;;;;15.55;5.97;;;;;;;12.46;37.59;103497.94;5055325;28;20404;-66
2023/02/08 09:29:53;;;;;;;17.77;4.82;;;;;;;12.80;37.86;103506.06;5054613;28;20033;-65
2023/02/08 09:32:20;;;;;;;15.20;3.97;;;;;;;13.18;37.84;103509.50;5054845;28;20037;-65
2023/02/08 09:34:45;;;;;;;9.48;4.25;;;;;;;13.52;37.53;103507.72;5055110;28;20048;-65
2023/02/08 09:37:11;;;;;;;7.07;4.18;;;;;;;13.89;36.64;103512.84;5054957;28;20408;-66
2023/02/08 09:39:36;;;;;;;11.25;4.28;;;;;;;14.37;36.87;103510.13;5054386;28;20033;-66
2023/02/08 09:42:21;;;;;;;10.35;4.15;;;;;;;14.75;35.62;103507.88;5054285;28;20055;-67
2023/02/08 09:45:06;;;;;;;8.57;4.63;;;;;;;15.36;35.95;103499.66;5055002;28;20047;-67
2023/02/08 09:47:36;;;;;;;6.93;4.00;;;;;;;15.84;36.19;103502.97;5054955;28;20068;-66
2023/02/08 09:50:21;;;;;;;12.07;5.40;;;;;;;16.22;35.61;103495.94;5054567;28;20116;-66
2023/02/08 09:53:08;;;;;;;9.02;4.65;;;;;;;16.66;34.44;103496.63;5054479;28;20046;-67
2023/02/08 09:55:36;;;;;;;9.32;5.03;;;;;;;17.09;34.30;103490.97;5069756;28;20035;-68
2023/02/08 09:58:04;;;;;;;9.80;4.50;;;;;;;17.47;33.38;103503.56;5053126;28;20112;-68
2023/02/08 10:00:34;;;;;;;8.70;4.97;;;;;;;17.89;33.81;103493.38;5070163;28;20013;-66
2023/02/08 10:03:01;;;;;;;8.45;4.28;;;;;;;18.27;33.40;103495.97;5054823;28;20037;-68
2023/02/08 10:05:27;;;;;;;9.65;4.63;;;;;;;18.63;33.16;103490.53;5054408;28;20087;-66
2023/02/08 10:07:53;;;;;;;7.63;4.57;;;;;;;18.94;32.93;103495.38;5068744;28;20489;-69
2023/02/08 10:10:31;;;;;;;9.57;4.38;;;;;;;19.25;32.74;103490.25;5054215;28;20041;-66
2023/02/08 10:13:04;;;;;;;12.23;4.88;;;;;;;19.60;32.38;103491.06;5054256;28;20473;-69
2023/02/08 10:15:51;;;;;;;7.93;3.92;;;;;;;19.92;32.50;103494.78;5054605;28;20103;-68
2023/02/08 10:18:43;;;;;;;14.23;4.80;;;;;;;20.21;31.99;103490.53;5052977;28;20076;-67
2023/02/08 10:21:31;;;;;;;9.90;5.00;;;;;;;20.56;32.01;103494.94;5043321;28;20041;-67
2023/02/08 10:24:02;;;;;;;8.63;4.78;;;;;;;20.80;31.82;103493.72;5053681;28;20033;-68
2023/02/08 10:26:27;;;;;;;13.52;4.40;;;;;;;21.00;31.38;103494.72;5053829;28;20041;-67
2023/02/08 10:29:09;;;;;;;5.43;3.67;;;;;;;21.21;30.39;103492.91;5053930;28;20047;-67
2023/02/08 10:31:44;;;;;;;9.20;4.93;;;;;;;21.43;30.50;103498.22;5053661;28;20551;-69
2023/02/08 10:34:13;;;;;;;9.95;4.95;;;;;;;21.58;31.04;103495.13;5053901;28;20119;-68
2023/02/08 10:36:41;;;;;;;8.65;5.10;;;;;;;21.75;29.91;103491.75;5053623;28;20420;-65
2023/02/08 10:39:36;;;;;;;10.43;4.65;;;;;;;21.92;30.25;103494.72;5053744;28;20041;-68
2023/02/08 10:42:03;;;;;;;8.35;3.88;;;;;;;22.05;30.37;103481.69;5035866;28;20512;-68
2023/02/08 10:44:52;;;;;;;8.90;4.22;;;;;;;22.24;29.46;103486.38;5053552;28;20091;-68
2023/02/08 10:47:36;;;;;;;9.38;3.45;;;;;;;22.35;29.13;103486.25;5053320;28;20416;-69
2023/02/08 10:50:15;;;;;;;7.25;3.88;;;;;;;22.40;29.32;103483.06;5053406;28;20037;-68
2023/02/08 10:52:40;;;;;;;8.63;4.00;;;;;;;22.51;29.60;103477.47;5052288;28;20033;-67
2023/02/08 10:55:14;;;;;;;5.55;3.80;;;;;;;22.67;29.37;103472.31;5053230;28;20489;-68
2023/02/08 10:57:39;;;;;;;6.47;3.45;;;;;;;22.79;29.14;103470.31;5053785;28;20112;-68
2023/02/08 11:00:17;;;;;;;6.20;3.35;;;;;;;22.83;28.87;103469.03;5053564;28;20440;-67
2023/02/08 11:02:45;;;;;;;7.55;3.47;;;;;;;22.88;27.87;103466.72;5053082;28;20528;-66
2023/02/08 11:05:14;;;;;;;7.68;3.28;;;;;;;22.86;28.35;103464.16;5053413;28;20040;-68
2023/02/08 11:07:40;;;;;;;7.93;3.50;;;;;;;22.88;28.49;103466.72;5052062;28;20467;-67
2023/02/08 11:10:19;;;;;;;10.13;3.95;;;;;;;22.85;27.09;103467.00;5053012;28;20056;-68
2023/02/08 11:12:58;;;;;;;5.25;3.05;;;;;;;22.81;26.96;103462.88;5053280;28;20092;-68
2023/02/08 11:15:28;;;;;;;5.57;2.95;;;;;;;22.83;27.03;103460.84;5053637;28;20025;-68
2023/02/08 11:17:57;;;;;;;6.78;3.45;;;;;;;22.88;27.58;103453.06;5068344;28;20060;-67
2023/02/08 11:20:31;;;;;;;3.80;2.95;;;;;;;22.89;27.40;103452.06;5067501;28;20037;-68
2023/02/08 11:22:57;;;;;;;7.00;3.25;;;;;;;22.91;26.48;103455.50;5068278;28;20028;-68
2023/02/08 11:25:35;;;;;;;4.15;3.20;;;;;;;22.92;26.57;103447.13;5068056;28;20063;-68
2023/02/08 11:28:00;;;;;;;5.05;3.10;;;;;;;22.98;26.56;103451.16;5053096;28;20032;-67
2023/02/08 11:30:26;;;;;;;5.38;3.30;;;;;;;23.03;26.98;103454.34;5053059;28;20385;-68
2023/02/08 11:33:14;;;;;;;5.07;3.42;;;;;;;23.05;27.06;103452.31;5052720;28;20526;-67
2023/02/08 11:35:40;;;;;;;8.40;3.53;;;;;;;23.05;26.89;103457.78;5052711;28;20037;-68
2023/02/08 11:38:06;;;;;;;5.20;3.30;;;;;;;23.01;26.34;103434.47;5051769;28;20045;-68